sensor_id;sensor_type;location;lat;lon;timestamp;P1;durP1;ratioP1;P2;durP2;ratioP2
48871;SDS011;36154;51.674;7.824;2023-12-14T00:02:24;1.70;;;1.60;;
48871;SDS011;36154;51.674;7.824;2023-12-14T00:04:49;1.77;;;1.67;;
48871;SDS011;36154;51.674;7.824;2023-12-14T00:07:14;1.60;;;1.50;;
48871;SDS011;36154;51.674;7.824;2023-12-14T00:09:40;1.55;;;1.48;;
48871;SDS011;36154;51.674;7.824;2023-12-14T00:12:05;1.55;;;1.50;;
48871;SDS011;36154;51.674;7.824;2023-12-14T00:14:31;1.13;;;1.13;;
48871;SDS011;36154;51.674;7.824;2023-12-14T00:16:56;1.45;;;1.45;;
48871;SDS011;36154;51.674;7.824;2023-12-14T00:19:24;1.38;;;1.30;;
48871;SDS011;36154;51.674;7.824;2023-12-14T00:21:49;1.30;;;1.30;;
48871;SDS011;36154;51.674;7.824;2023-12-14T00:24:14;1.30;;;1.25;;
48871;SDS011;36154;51.674;7.824;2023-12-14T00:26:39;1.25;;;1.25;;
48871;SDS011;36154;51.674;7.824;2023-12-14T00:29:05;1.60;;;1.50;;
48871;SDS011;36154;51.674;7.824;2023-12-14T00:31:30;1.20;;;1.20;;
48871;SDS011;36154;51.674;7.824;2023-12-14T00:33:55;1.00;;;1.00;;
48871;SDS011;36154;51.674;7.824;2023-12-14T00:36:21;1.60;;;1.50;;
48871;SDS011;36154;51.674;7.824;2023-12-14T00:38:46;1.20;;;1.20;;
48871;SDS011;36154;51.674;7.824;2023-12-14T00:41:11;1.20;;;1.20;;
48871;SDS011;36154;51.674;7.824;2023-12-14T00:43:36;1.30;;;1.30;;
48871;SDS011;36154;51.674;7.824;2023-12-14T00:46:03;1.30;;;1.25;;
48871;SDS011;36154;51.674;7.824;2023-12-14T00:48:28;1.63;;;1.52;;
48871;SDS011;36154;51.674;7.824;2023-12-14T00:50:53;1.30;;;1.30;;
48871;SDS011;36154;51.674;7.824;2023-12-14T00:53:19;1.15;;;1.15;;
48871;SDS011;36154;51.674;7.824;2023-12-14T00:55:44;1.25;;;1.25;;
48871;SDS011;36154;51.674;7.824;2023-12-14T00:58:10;1.20;;;1.20;;
48871;SDS011;36154;51.674;7.824;2023-12-14T01:00:37;1.30;;;1.30;;
48871;SDS011;36154;51.674;7.824;2023-12-14T01:03:03;1.40;;;1.30;;
48871;SDS011;36154;51.674;7.824;2023-12-14T01:05:28;1.20;;;1.20;;
48871;SDS011;36154;51.674;7.824;2023-12-14T01:07:54;1.13;;;1.13;;
48871;SDS011;36154;51.674;7.824;2023-12-14T01:10:19;1.17;;;1.17;;
48871;SDS011;36154;51.674;7.824;2023-12-14T01:12:44;1.20;;;1.05;;
48871;SDS011;36154;51.674;7.824;2023-12-14T01:15:10;1.55;;;1.45;;
48871;SDS011;36154;51.674;7.824;2023-12-14T01:17:35;0.90;;;0.90;;
48871;SDS011;36154;51.674;7.824;2023-12-14T01:20:11;0.93;;;0.93;;
48871;SDS011;36154;51.674;7.824;2023-12-14T01:22:36;1.10;;;1.10;;
48871;SDS011;36154;51.674;7.824;2023-12-14T01:25:02;1.10;;;1.10;;
48871;SDS011;36154;51.674;7.824;2023-12-14T01:27:27;0.90;;;0.90;;
48871;SDS011;36154;51.674;7.824;2023-12-14T01:29:52;0.98;;;0.98;;
48871;SDS011;36154;51.674;7.824;2023-12-14T01:32:18;1.20;;;1.10;;
48871;SDS011;36154;51.674;7.824;2023-12-14T01:34:44;0.90;;;0.90;;
48871;SDS011;36154;51.674;7.824;2023-12-14T01:37:09;0.98;;;0.98;;
48871;SDS011;36154;51.674;7.824;2023-12-14T01:39:34;1.23;;;1.15;;
48871;SDS011;36154;51.674;7.824;2023-12-14T01:42:00;0.80;;;0.80;;
48871;SDS011;36154;51.674;7.824;2023-12-14T01:44:25;0.80;;;0.80;;
48871;SDS011;36154;51.674;7.824;2023-12-14T01:46:50;1.10;;;1.10;;
48871;SDS011;36154;51.674;7.824;2023-12-14T01:49:15;1.15;;;0.80;;
48871;SDS011;36154;51.674;7.824;2023-12-14T01:51:41;0.70;;;0.70;;
48871;SDS011;36154;51.674;7.824;2023-12-14T01:54:06;1.00;;;1.00;;
48871;SDS011;36154;51.674;7.824;2023-12-14T01:56:31;1.02;;;1.02;;
48871;SDS011;36154;51.674;7.824;2023-12-14T01:58:56;0.85;;;0.85;;
48871;SDS011;36154;51.674;7.824;2023-12-14T02:01:23;0.93;;;0.93;;
48871;SDS011;36154;51.674;7.824;2023-12-14T02:03:56;0.60;;;0.60;;
48871;SDS011;36154;51.674;7.824;2023-12-14T02:06:21;0.80;;;0.80;;
48871;SDS011;36154;51.674;7.824;2023-12-14T02:08:46;0.75;;;0.75;;
48871;SDS011;36154;51.674;7.824;2023-12-14T02:11:12;0.80;;;0.80;;
48871;SDS011;36154;51.674;7.824;2023-12-14T02:13:37;0.75;;;0.75;;
48871;SDS011;36154;51.674;7.824;2023-12-14T02:16:03;0.77;;;0.77;;
48871;SDS011;36154;51.674;7.824;2023-12-14T02:18:28;0.60;;;0.60;;
48871;SDS011;36154;51.674;7.824;2023-12-14T02:20:54;0.80;;;0.80;;
48871;SDS011;36154;51.674;7.824;2023-12-14T02:23:19;0.85;;;0.85;;
48871;SDS011;36154;51.674;7.824;2023-12-14T02:25:44;0.50;;;0.50;;
48871;SDS011;36154;51.674;7.824;2023-12-14T02:28:09;0.52;;;0.52;;
48871;SDS011;36154;51.674;7.824;2023-12-14T02:30:35;0.75;;;0.75;;
48871;SDS011;36154;51.674;7.824;2023-12-14T02:33:00;0.93;;;0.90;;
48871;SDS011;36154;51.674;7.824;2023-12-14T02:35:25;0.80;;;0.80;;
48871;SDS011;36154;51.674;7.824;2023-12-14T02:37:50;0.82;;;0.82;;
48871;SDS011;36154;51.674;7.824;2023-12-14T02:40:16;0.80;;;0.80;;
48871;SDS011;36154;51.674;7.824;2023-12-14T02:42:41;0.60;;;0.60;;
48871;SDS011;36154;51.674;7.824;2023-12-14T02:45:07;0.60;;;0.60;;
48871;SDS011;36154;51.674;7.824;2023-12-14T02:47:33;0.60;;;0.60;;
48871;SDS011;36154;51.674;7.824;2023-12-14T02:49:58;0.63;;;0.63;;
48871;SDS011;36154;51.674;7.824;2023-12-14T02:52:23;0.60;;;0.60;;
48871;SDS011;36154;51.674;7.824;2023-12-14T02:54:49;0.70;;;0.70;;
48871;SDS011;36154;51.674;7.824;2023-12-14T02:57:14;0.50;;;0.50;;
48871;SDS011;36154;51.674;7.824;2023-12-14T02:59:39;0.70;;;0.70;;
48871;SDS011;36154;51.674;7.824;2023-12-14T03:02:05;0.70;;;0.70;;
48871;SDS011;36154;51.674;7.824;2023-12-14T03:04:30;1.33;;;0.70;;
48871;SDS011;36154;51.674;7.824;2023-12-14T03:06:56;0.80;;;0.80;;
48871;SDS011;36154;51.674;7.824;2023-12-14T03:09:21;0.75;;;0.75;;
48871;SDS011;36154;51.674;7.824;2023-12-14T03:11:47;0.95;;;0.50;;
48871;SDS011;36154;51.674;7.824;2023-12-14T03:14:13;0.60;;;0.60;;
48871;SDS011;36154;51.674;7.824;2023-12-14T03:16:38;0.55;;;0.55;;
48871;SDS011;36154;51.674;7.824;2023-12-14T03:19:03;0.60;;;0.60;;
48871;SDS011;36154;51.674;7.824;2023-12-14T03:21:29;0.60;;;0.60;;
48871;SDS011;36154;51.674;7.824;2023-12-14T03:23:54;0.40;;;0.40;;
48871;SDS011;36154;51.674;7.824;2023-12-14T03:26:20;0.57;;;0.57;;
48871;SDS011;36154;51.674;7.824;2023-12-14T03:28:45;0.43;;;0.43;;
48871;SDS011;36154;51.674;7.824;2023-12-14T03:31:10;0.50;;;0.50;;
48871;SDS011;36154;51.674;7.824;2023-12-14T03:33:37;0.70;;;0.70;;
48871;SDS011;36154;51.674;7.824;2023-12-14T03:36:02;0.77;;;0.77;;
48871;SDS011;36154;51.674;7.824;2023-12-14T03:38:28;0.70;;;0.70;;
48871;SDS011;36154;51.674;7.824;2023-12-14T03:40:53;0.50;;;0.50;;
48871;SDS011;36154;51.674;7.824;2023-12-14T03:43:18;0.63;;;0.60;;
48871;SDS011;36154;51.674;7.824;2023-12-14T03:45:44;0.65;;;0.65;;
48871;SDS011;36154;51.674;7.824;2023-12-14T03:48:09;0.40;;;0.40;;
48871;SDS011;36154;51.674;7.824;2023-12-14T03:50:35;0.50;;;0.50;;
48871;SDS011;36154;51.674;7.824;2023-12-14T03:53:00;0.40;;;0.40;;
48871;SDS011;36154;51.674;7.824;2023-12-14T03:55:25;0.50;;;0.50;;
48871;SDS011;36154;51.674;7.824;2023-12-14T03:57:50;0.40;;;0.40;;
48871;SDS011;36154;51.674;7.824;2023-12-14T04:00:16;0.30;;;0.30;;
48871;SDS011;36154;51.674;7.824;2023-12-14T04:02:41;0.40;;;0.40;;
48871;SDS011;36154;51.674;7.824;2023-12-14T04:05:08;0.50;;;0.50;;
48871;SDS011;36154;51.674;7.824;2023-12-14T04:07:35;0.40;;;0.40;;
48871;SDS011;36154;51.674;7.824;2023-12-14T04:10:01;0.82;;;0.40;;
48871;SDS011;36154;51.674;7.824;2023-12-14T04:12:26;0.40;;;0.40;;
48871;SDS011;36154;51.674;7.824;2023-12-14T04:14:52;0.50;;;0.50;;
48871;SDS011;36154;51.674;7.824;2023-12-14T04:17:17;0.40;;;0.40;;
48871;SDS011;36154;51.674;7.824;2023-12-14T04:19:42;0.40;;;0.40;;
48871;SDS011;36154;51.674;7.824;2023-12-14T04:22:08;0.40;;;0.40;;
48871;SDS011;36154;51.674;7.824;2023-12-14T04:24:33;0.40;;;0.40;;
48871;SDS011;36154;51.674;7.824;2023-12-14T04:26:58;0.57;;;0.57;;
48871;SDS011;36154;51.674;7.824;2023-12-14T04:29:24;0.60;;;0.60;;
48871;SDS011;36154;51.674;7.824;2023-12-14T04:31:49;0.40;;;0.40;;
48871;SDS011;36154;51.674;7.824;2023-12-14T04:34:14;0.45;;;0.45;;
48871;SDS011;36154;51.674;7.824;2023-12-14T04:36:44;0.45;;;0.45;;
48871;SDS011;36154;51.674;7.824;2023-12-14T04:39:10;0.40;;;0.40;;
48871;SDS011;36154;51.674;7.824;2023-12-14T04:41:36;0.40;;;0.40;;
48871;SDS011;36154;51.674;7.824;2023-12-14T04:44:01;0.50;;;0.50;;
48871;SDS011;36154;51.674;7.824;2023-12-14T04:46:26;0.55;;;0.55;;
48871;SDS011;36154;51.674;7.824;2023-12-14T04:48:51;0.95;;;0.57;;
48871;SDS011;36154;51.674;7.824;2023-12-14T04:51:17;0.40;;;0.40;;
48871;SDS011;36154;51.674;7.824;2023-12-14T04:53:42;4.22;;;1.40;;
48871;SDS011;36154;51.674;7.824;2023-12-14T04:56:11;0.47;;;0.47;;
48871;SDS011;36154;51.674;7.824;2023-12-14T04:58:39;0.40;;;0.40;;
48871;SDS011;36154;51.674;7.824;2023-12-14T05:01:05;0.30;;;0.30;;
48871;SDS011;36154;51.674;7.824;2023-12-14T05:03:31;0.60;;;0.60;;
48871;SDS011;36154;51.674;7.824;2023-12-14T05:05:57;0.50;;;0.50;;
48871;SDS011;36154;51.674;7.824;2023-12-14T05:08:22;0.47;;;0.47;;
48871;SDS011;36154;51.674;7.824;2023-12-14T05:10:47;0.30;;;0.30;;
48871;SDS011;36154;51.674;7.824;2023-12-14T05:13:13;0.30;;;0.30;;
48871;SDS011;36154;51.674;7.824;2023-12-14T05:15:38;0.40;;;0.40;;
48871;SDS011;36154;51.674;7.824;2023-12-14T05:18:03;0.30;;;0.30;;
48871;SDS011;36154;51.674;7.824;2023-12-14T05:20:28;0.40;;;0.40;;
48871;SDS011;36154;51.674;7.824;2023-12-14T05:22:54;1.30;;;0.50;;
48871;SDS011;36154;51.674;7.824;2023-12-14T05:25:20;1.15;;;0.80;;
48871;SDS011;36154;51.674;7.824;2023-12-14T05:27:45;0.80;;;0.60;;
48871;SDS011;36154;51.674;7.824;2023-12-14T05:30:10;0.80;;;0.40;;
48871;SDS011;36154;51.674;7.824;2023-12-14T05:32:36;1.38;;;0.43;;
48871;SDS011;36154;51.674;7.824;2023-12-14T05:35:01;1.95;;;0.40;;
48871;SDS011;36154;51.674;7.824;2023-12-14T05:37:26;1.85;;;0.43;;
48871;SDS011;36154;51.674;7.824;2023-12-14T05:39:52;1.60;;;0.38;;
48871;SDS011;36154;51.674;7.824;2023-12-14T05:42:17;1.20;;;0.40;;
48871;SDS011;36154;51.674;7.824;2023-12-14T05:44:43;0.63;;;0.30;;
48871;SDS011;36154;51.674;7.824;2023-12-14T05:47:10;0.47;;;0.47;;
48871;SDS011;36154;51.674;7.824;2023-12-14T05:49:35;1.52;;;0.50;;
48871;SDS011;36154;51.674;7.824;2023-12-14T05:52:00;0.30;;;0.30;;
48871;SDS011;36154;51.674;7.824;2023-12-14T05:54:26;0.47;;;0.47;;
48871;SDS011;36154;51.674;7.824;2023-12-14T05:56:51;0.30;;;0.30;;
48871;SDS011;36154;51.674;7.824;2023-12-14T05:59:16;0.22;;;0.22;;
48871;SDS011;36154;51.674;7.824;2023-12-14T06:01:42;0.22;;;0.22;;
48871;SDS011;36154;51.674;7.824;2023-12-14T06:04:08;0.43;;;0.43;;
48871;SDS011;36154;51.674;7.824;2023-12-14T06:06:33;0.32;;;0.30;;
48871;SDS011;36154;51.674;7.824;2023-12-14T06:08:58;0.50;;;0.50;;
48871;SDS011;36154;51.674;7.824;2023-12-14T06:11:24;0.38;;;0.38;;
48871;SDS011;36154;51.674;7.824;2023-12-14T06:13:49;0.40;;;0.40;;
48871;SDS011;36154;51.674;7.824;2023-12-14T06:16:14;0.40;;;0.40;;
48871;SDS011;36154;51.674;7.824;2023-12-14T06:18:40;1.20;;;0.40;;
48871;SDS011;36154;51.674;7.824;2023-12-14T06:21:08;2.08;;;0.40;;
48871;SDS011;36154;51.674;7.824;2023-12-14T06:23:35;0.93;;;0.32;;
48871;SDS011;36154;51.674;7.824;2023-12-14T06:26:02;0.40;;;0.40;;
48871;SDS011;36154;51.674;7.824;2023-12-14T06:28:28;3.10;;;2.90;;
48871;SDS011;36154;51.674;7.824;2023-12-14T06:30:55;3.75;;;3.55;;
48871;SDS011;36154;51.674;7.824;2023-12-14T06:33:20;4.00;;;3.80;;
48871;SDS011;36154;51.674;7.824;2023-12-14T06:35:46;3.55;;;3.35;;
48871;SDS011;36154;51.674;7.824;2023-12-14T06:38:11;4.00;;;3.70;;
48871;SDS011;36154;51.674;7.824;2023-12-14T06:40:37;3.35;;;3.13;;
48871;SDS011;36154;51.674;7.824;2023-12-14T06:43:03;2.20;;;2.10;;
48871;SDS011;36154;51.674;7.824;2023-12-14T06:45:30;1.70;;;1.60;;
48871;SDS011;36154;51.674;7.824;2023-12-14T06:47:55;1.40;;;1.20;;
48871;SDS011;36154;51.674;7.824;2023-12-14T06:50:20;1.30;;;1.20;;
48871;SDS011;36154;51.674;7.824;2023-12-14T06:52:45;0.70;;;0.70;;
48871;SDS011;36154;51.674;7.824;2023-12-14T06:55:11;0.75;;;0.73;;
48871;SDS011;36154;51.674;7.824;2023-12-14T06:57:36;0.50;;;0.50;;
48871;SDS011;36154;51.674;7.824;2023-12-14T07:00:02;0.52;;;0.50;;
48871;SDS011;36154;51.674;7.824;2023-12-14T07:02:27;0.32;;;0.32;;
48871;SDS011;36154;51.674;7.824;2023-12-14T07:04:53;0.47;;;0.47;;
48871;SDS011;36154;51.674;7.824;2023-12-14T07:07:18;0.40;;;0.40;;
48871;SDS011;36154;51.674;7.824;2023-12-14T07:09:43;0.20;;;0.20;;
48871;SDS011;36154;51.674;7.824;2023-12-14T07:12:11;0.30;;;0.30;;
48871;SDS011;36154;51.674;7.824;2023-12-14T07:14:36;0.80;;;0.20;;
48871;SDS011;36154;51.674;7.824;2023-12-14T07:17:02;0.20;;;0.20;;
48871;SDS011;36154;51.674;7.824;2023-12-14T07:19:27;0.35;;;0.20;;
48871;SDS011;36154;51.674;7.824;2023-12-14T07:21:52;0.10;;;0.10;;
48871;SDS011;36154;51.674;7.824;2023-12-14T07:24:17;0.20;;;0.20;;
48871;SDS011;36154;51.674;7.824;2023-12-14T07:26:43;0.10;;;0.10;;
48871;SDS011;36154;51.674;7.824;2023-12-14T07:29:08;0.15;;;0.15;;
48871;SDS011;36154;51.674;7.824;2023-12-14T07:31:34;0.13;;;0.13;;
48871;SDS011;36154;51.674;7.824;2023-12-14T07:33:59;0.10;;;0.10;;
48871;SDS011;36154;51.674;7.824;2023-12-14T07:36:24;0.10;;;0.10;;
48871;SDS011;36154;51.674;7.824;2023-12-14T07:38:50;0.10;;;0.10;;
48871;SDS011;36154;51.674;7.824;2023-12-14T07:41:15;0.10;;;0.10;;
48871;SDS011;36154;51.674;7.824;2023-12-14T07:43:40;0.20;;;0.20;;
48871;SDS011;36154;51.674;7.824;2023-12-14T07:46:05;0.10;;;0.10;;
48871;SDS011;36154;51.674;7.824;2023-12-14T07:48:31;0.10;;;0.10;;
48871;SDS011;36154;51.674;7.824;2023-12-14T07:50:56;0.10;;;0.10;;
48871;SDS011;36154;51.674;7.824;2023-12-14T07:53:21;0.10;;;0.10;;
48871;SDS011;36154;51.674;7.824;2023-12-14T07:55:46;0.10;;;0.10;;
48871;SDS011;36154;51.674;7.824;2023-12-14T07:58:12;0.10;;;0.10;;
48871;SDS011;36154;51.674;7.824;2023-12-14T08:00:38;0.10;;;0.10;;
48871;SDS011;36154;51.674;7.824;2023-12-14T08:03:03;0.10;;;0.10;;
48871;SDS011;36154;51.674;7.824;2023-12-14T08:05:28;0.10;;;0.10;;
48871;SDS011;36154;51.674;7.824;2023-12-14T08:07:54;0.10;;;0.10;;
48871;SDS011;36154;51.674;7.824;2023-12-14T08:10:19;0.00;;;0.00;;
48871;SDS011;36154;51.674;7.824;2023-12-14T08:12:44;0.10;;;0.10;;
48871;SDS011;36154;51.674;7.824;2023-12-14T08:15:09;0.10;;;0.10;;
48871;SDS011;36154;51.674;7.824;2023-12-14T08:17:35;0.10;;;0.10;;
48871;SDS011;36154;51.674;7.824;2023-12-14T08:20:00;0.10;;;0.10;;
48871;SDS011;36154;51.674;7.824;2023-12-14T08:22:26;0.00;;;0.00;;
48871;SDS011;36154;51.674;7.824;2023-12-14T08:24:51;0.10;;;0.10;;
48871;SDS011;36154;51.674;7.824;2023-12-14T08:27:16;0.20;;;0.20;;
48871;SDS011;36154;51.674;7.824;2023-12-14T08:29:42;0.10;;;0.10;;
48871;SDS011;36154;51.674;7.824;2023-12-14T08:32:08;0.10;;;0.10;;
48871;SDS011;36154;51.674;7.824;2023-12-14T08:34:33;0.10;;;0.10;;
48871;SDS011;36154;51.674;7.824;2023-12-14T08:37:00;0.10;;;0.10;;
48871;SDS011;36154;51.674;7.824;2023-12-14T08:39:25;0.10;;;0.10;;
48871;SDS011;36154;51.674;7.824;2023-12-14T08:41:51;0.10;;;0.10;;
48871;SDS011;36154;51.674;7.824;2023-12-14T08:44:16;0.10;;;0.10;;
48871;SDS011;36154;51.674;7.824;2023-12-14T08:46:43;0.10;;;0.10;;
48871;SDS011;36154;51.674;7.824;2023-12-14T08:49:09;0.10;;;0.10;;
48871;SDS011;36154;51.674;7.824;2023-12-14T08:51:35;0.10;;;0.10;;
48871;SDS011;36154;51.674;7.824;2023-12-14T08:54:01;0.10;;;0.10;;
48871;SDS011;36154;51.674;7.824;2023-12-14T08:56:26;0.10;;;0.10;;
48871;SDS011;36154;51.674;7.824;2023-12-14T08:58:51;0.10;;;0.10;;
48871;SDS011;36154;51.674;7.824;2023-12-14T09:01:21;0.10;;;0.10;;
48871;SDS011;36154;51.674;7.824;2023-12-14T09:03:47;0.10;;;0.10;;
48871;SDS011;36154;51.674;7.824;2023-12-14T09:06:12;0.10;;;0.10;;
48871;SDS011;36154;51.674;7.824;2023-12-14T09:08:39;0.10;;;0.10;;
48871;SDS011;36154;51.674;7.824;2023-12-14T09:11:05;0.10;;;0.10;;
48871;SDS011;36154;51.674;7.824;2023-12-14T09:13:30;0.10;;;0.10;;
48871;SDS011;36154;51.674;7.824;2023-12-14T09:15:55;0.10;;;0.10;;
48871;SDS011;36154;51.674;7.824;2023-12-14T09:18:21;0.10;;;0.10;;
48871;SDS011;36154;51.674;7.824;2023-12-14T09:20:47;0.10;;;0.10;;
48871;SDS011;36154;51.674;7.824;2023-12-14T09:23:14;0.10;;;0.10;;
48871;SDS011;36154;51.674;7.824;2023-12-14T09:25:40;0.10;;;0.10;;
48871;SDS011;36154;51.674;7.824;2023-12-14T09:28:05;0.10;;;0.10;;
48871;SDS011;36154;51.674;7.824;2023-12-14T09:30:30;0.10;;;0.10;;
48871;SDS011;36154;51.674;7.824;2023-12-14T09:32:55;0.10;;;0.10;;
48871;SDS011;36154;51.674;7.824;2023-12-14T09:35:21;0.10;;;0.10;;
48871;SDS011;36154;51.674;7.824;2023-12-14T09:37:46;0.10;;;0.10;;
48871;SDS011;36154;51.674;7.824;2023-12-14T09:40:11;0.10;;;0.10;;
48871;SDS011;36154;51.674;7.824;2023-12-14T09:42:37;0.10;;;0.10;;
48871;SDS011;36154;51.674;7.824;2023-12-14T09:45:04;0.08;;;0.08;;
48871;SDS011;36154;51.674;7.824;2023-12-14T09:47:34;0.10;;;0.10;;
48871;SDS011;36154;51.674;7.824;2023-12-14T09:50:01;0.10;;;0.10;;
48871;SDS011;36154;51.674;7.824;2023-12-14T09:52:28;0.10;;;0.10;;
48871;SDS011;36154;51.674;7.824;2023-12-14T09:54:53;0.10;;;0.10;;
48871;SDS011;36154;51.674;7.824;2023-12-14T09:57:18;0.10;;;0.10;;
48871;SDS011;36154;51.674;7.824;2023-12-14T09:59:50;0.10;;;0.10;;
48871;SDS011;36154;51.674;7.824;2023-12-14T10:02:17;0.10;;;0.10;;
48871;SDS011;36154;51.674;7.824;2023-12-14T10:04:45;0.10;;;0.10;;
48871;SDS011;36154;51.674;7.824;2023-12-14T10:07:11;0.10;;;0.10;;
48871;SDS011;36154;51.674;7.824;2023-12-14T10:09:37;0.10;;;0.10;;
48871;SDS011;36154;51.674;7.824;2023-12-14T10:12:06;0.10;;;0.10;;
48871;SDS011;36154;51.674;7.824;2023-12-14T10:14:34;0.10;;;0.10;;
48871;SDS011;36154;51.674;7.824;2023-12-14T10:17:13;0.10;;;0.10;;
48871;SDS011;36154;51.674;7.824;2023-12-14T10:19:46;0.10;;;0.10;;
48871;SDS011;36154;51.674;7.824;2023-12-14T10:22:15;0.10;;;0.10;;
48871;SDS011;36154;51.674;7.824;2023-12-14T10:24:43;0.17;;;0.17;;
48871;SDS011;36154;51.674;7.824;2023-12-14T10:27:09;0.10;;;0.10;;
48871;SDS011;36154;51.674;7.824;2023-12-14T10:29:39;0.28;;;0.10;;
48871;SDS011;36154;51.674;7.824;2023-12-14T10:32:04;0.10;;;0.10;;
48871;SDS011;36154;51.674;7.824;2023-12-14T10:34:32;0.10;;;0.10;;
48871;SDS011;36154;51.674;7.824;2023-12-14T10:37:01;0.10;;;0.10;;
48871;SDS011;36154;51.674;7.824;2023-12-14T10:39:26;0.10;;;0.10;;
48871;SDS011;36154;51.674;7.824;2023-12-14T10:41:54;0.10;;;0.10;;
48871;SDS011;36154;51.674;7.824;2023-12-14T10:44:21;0.10;;;0.10;;
48871;SDS011;36154;51.674;7.824;2023-12-14T10:46:50;0.10;;;0.10;;
48871;SDS011;36154;51.674;7.824;2023-12-14T10:49:21;0.10;;;0.10;;
48871;SDS011;36154;51.674;7.824;2023-12-14T10:51:48;0.10;;;0.10;;
48871;SDS011;36154;51.674;7.824;2023-12-14T10:54:15;0.10;;;0.10;;
48871;SDS011;36154;51.674;7.824;2023-12-14T10:56:41;0.05;;;0.05;;
48871;SDS011;36154;51.674;7.824;2023-12-14T10:59:06;0.20;;;0.20;;
48871;SDS011;36154;51.674;7.824;2023-12-14T11:01:32;0.20;;;0.10;;
48871;SDS011;36154;51.674;7.824;2023-12-14T11:03:58;0.10;;;0.10;;
48871;SDS011;36154;51.674;7.824;2023-12-14T11:08:52;0.10;;;0.10;;
48871;SDS011;36154;51.674;7.824;2023-12-14T11:11:19;0.10;;;0.10;;
48871;SDS011;36154;51.674;7.824;2023-12-14T11:13:52;0.20;;;0.20;;
48871;SDS011;36154;51.674;7.824;2023-12-14T11:16:21;0.10;;;0.10;;
48871;SDS011;36154;51.674;7.824;2023-12-14T11:18:47;0.10;;;0.10;;
48871;SDS011;36154;51.674;7.824;2023-12-14T11:21:19;0.10;;;0.10;;
48871;SDS011;36154;51.674;7.824;2023-12-14T11:23:45;0.10;;;0.10;;
48871;SDS011;36154;51.674;7.824;2023-12-14T11:26:15;0.10;;;0.10;;
48871;SDS011;36154;51.674;7.824;2023-12-14T11:28:47;0.10;;;0.10;;
48871;SDS011;36154;51.674;7.824;2023-12-14T11:31:13;0.10;;;0.10;;
48871;SDS011;36154;51.674;7.824;2023-12-14T11:33:39;0.10;;;0.10;;
48871;SDS011;36154;51.674;7.824;2023-12-14T11:36:05;0.10;;;0.10;;
48871;SDS011;36154;51.674;7.824;2023-12-14T11:38:31;0.20;;;0.20;;
48871;SDS011;36154;51.674;7.824;2023-12-14T11:40:57;0.10;;;0.10;;
48871;SDS011;36154;51.674;7.824;2023-12-14T11:43:23;0.10;;;0.10;;
48871;SDS011;36154;51.674;7.824;2023-12-14T11:45:51;0.10;;;0.10;;
48871;SDS011;36154;51.674;7.824;2023-12-14T11:48:17;0.10;;;0.10;;
48871;SDS011;36154;51.674;7.824;2023-12-14T11:50:42;0.10;;;0.10;;
48871;SDS011;36154;51.674;7.824;2023-12-14T11:53:09;0.10;;;0.10;;
48871;SDS011;36154;51.674;7.824;2023-12-14T11:55:35;0.10;;;0.10;;
48871;SDS011;36154;51.674;7.824;2023-12-14T11:58:03;0.10;;;0.10;;
48871;SDS011;36154;51.674;7.824;2023-12-14T12:00:29;0.10;;;0.10;;
48871;SDS011;36154;51.674;7.824;2023-12-14T12:03:07;0.25;;;0.10;;
48871;SDS011;36154;51.674;7.824;2023-12-14T12:05:40;0.10;;;0.10;;
48871;SDS011;36154;51.674;7.824;2023-12-14T12:08:16;0.10;;;0.10;;
48871;SDS011;36154;51.674;7.824;2023-12-14T12:10:46;0.10;;;0.10;;
48871;SDS011;36154;51.674;7.824;2023-12-14T12:13:13;0.10;;;0.10;;
48871;SDS011;36154;51.674;7.824;2023-12-14T12:15:40;0.10;;;0.10;;
48871;SDS011;36154;51.674;7.824;2023-12-14T12:18:06;0.10;;;0.10;;
48871;SDS011;36154;51.674;7.824;2023-12-14T12:20:32;0.10;;;0.10;;
48871;SDS011;36154;51.674;7.824;2023-12-14T12:22:58;0.20;;;0.20;;
48871;SDS011;36154;51.674;7.824;2023-12-14T12:25:23;0.10;;;0.10;;
48871;SDS011;36154;51.674;7.824;2023-12-14T12:27:49;0.13;;;0.13;;
48871;SDS011;36154;51.674;7.824;2023-12-14T12:30:14;0.20;;;0.20;;
48871;SDS011;36154;51.674;7.824;2023-12-14T12:32:40;0.10;;;0.10;;
48871;SDS011;36154;51.674;7.824;2023-12-14T12:35:06;0.10;;;0.10;;
48871;SDS011;36154;51.674;7.824;2023-12-14T12:37:32;0.20;;;0.20;;
48871;SDS011;36154;51.674;7.824;2023-12-14T12:39:57;0.20;;;0.20;;
48871;SDS011;36154;51.674;7.824;2023-12-14T12:42:22;0.20;;;0.20;;
48871;SDS011;36154;51.674;7.824;2023-12-14T12:44:47;0.20;;;0.20;;
48871;SDS011;36154;51.674;7.824;2023-12-14T12:47:13;0.20;;;0.20;;
48871;SDS011;36154;51.674;7.824;2023-12-14T12:49:38;0.30;;;0.30;;
48871;SDS011;36154;51.674;7.824;2023-12-14T12:52:03;0.20;;;0.20;;
48871;SDS011;36154;51.674;7.824;2023-12-14T12:54:30;0.20;;;0.20;;
48871;SDS011;36154;51.674;7.824;2023-12-14T12:56:56;0.20;;;0.20;;
48871;SDS011;36154;51.674;7.824;2023-12-14T12:59:21;0.20;;;0.20;;
48871;SDS011;36154;51.674;7.824;2023-12-14T13:01:47;0.52;;;0.30;;
48871;SDS011;36154;51.674;7.824;2023-12-14T13:04:19;0.30;;;0.30;;
48871;SDS011;36154;51.674;7.824;2023-12-14T13:06:45;0.20;;;0.20;;
48871;SDS011;36154;51.674;7.824;2023-12-14T13:09:15;0.55;;;0.30;;
48871;SDS011;36154;51.674;7.824;2023-12-14T13:11:41;0.20;;;0.20;;
48871;SDS011;36154;51.674;7.824;2023-12-14T13:14:10;0.20;;;0.20;;
48871;SDS011;36154;51.674;7.824;2023-12-14T13:16:35;0.28;;;0.28;;
48871;SDS011;36154;51.674;7.824;2023-12-14T13:19:02;0.20;;;0.20;;
48871;SDS011;36154;51.674;7.824;2023-12-14T13:21:28;0.22;;;0.22;;
48871;SDS011;36154;51.674;7.824;2023-12-14T13:23:54;0.30;;;0.30;;
48871;SDS011;36154;51.674;7.824;2023-12-14T13:26:21;0.30;;;0.30;;
48871;SDS011;36154;51.674;7.824;2023-12-14T13:28:47;0.40;;;0.40;;
48871;SDS011;36154;51.674;7.824;2023-12-14T13:31:12;0.30;;;0.30;;
48871;SDS011;36154;51.674;7.824;2023-12-14T13:33:38;0.30;;;0.30;;
48871;SDS011;36154;51.674;7.824;2023-12-14T13:36:03;0.32;;;0.32;;
48871;SDS011;36154;51.674;7.824;2023-12-14T13:38:28;1.02;;;0.40;;
48871;SDS011;36154;51.674;7.824;2023-12-14T13:40:54;0.30;;;0.30;;
48871;SDS011;36154;51.674;7.824;2023-12-14T13:43:19;1.50;;;0.50;;
48871;SDS011;36154;51.674;7.824;2023-12-14T13:45:44;0.40;;;0.40;;
48871;SDS011;36154;51.674;7.824;2023-12-14T13:48:10;0.43;;;0.40;;
48871;SDS011;36154;51.674;7.824;2023-12-14T13:50:35;0.47;;;0.47;;
48871;SDS011;36154;51.674;7.824;2023-12-14T13:53:01;1.95;;;0.60;;
48871;SDS011;36154;51.674;7.824;2023-12-14T13:55:29;0.60;;;0.60;;
48871;SDS011;36154;51.674;7.824;2023-12-14T13:57:55;2.05;;;0.60;;
48871;SDS011;36154;51.674;7.824;2023-12-14T14:00:22;2.67;;;0.60;;
48871;SDS011;36154;51.674;7.824;2023-12-14T14:02:49;5.78;;;0.60;;
48871;SDS011;36154;51.674;7.824;2023-12-14T14:05:14;0.57;;;0.57;;
48871;SDS011;36154;51.674;7.824;2023-12-14T14:07:39;0.50;;;0.50;;
48871;SDS011;36154;51.674;7.824;2023-12-14T14:10:05;0.40;;;0.40;;
48871;SDS011;36154;51.674;7.824;2023-12-14T14:12:31;0.60;;;0.60;;
48871;SDS011;36154;51.674;7.824;2023-12-14T14:14:56;2.05;;;0.50;;
48871;SDS011;36154;51.674;7.824;2023-12-14T14:17:21;1.58;;;0.50;;
48871;SDS011;36154;51.674;7.824;2023-12-14T14:19:47;0.90;;;0.50;;
48871;SDS011;36154;51.674;7.824;2023-12-14T14:22:12;1.40;;;0.50;;
48871;SDS011;36154;51.674;7.824;2023-12-14T14:24:37;0.73;;;0.50;;
48871;SDS011;36154;51.674;7.824;2023-12-14T14:27:04;0.40;;;0.40;;
48871;SDS011;36154;51.674;7.824;2023-12-14T14:29:29;0.60;;;0.60;;
48871;SDS011;36154;51.674;7.824;2023-12-14T14:31:54;1.07;;;0.60;;
48871;SDS011;36154;51.674;7.824;2023-12-14T14:34:20;0.40;;;0.40;;
48871;SDS011;36154;51.674;7.824;2023-12-14T14:36:46;0.50;;;0.50;;
48871;SDS011;36154;51.674;7.824;2023-12-14T14:39:12;5.07;;;0.80;;
48871;SDS011;36154;51.674;7.824;2023-12-14T14:41:37;0.70;;;0.70;;
48871;SDS011;36154;51.674;7.824;2023-12-14T14:44:03;1.15;;;0.60;;